sensor_id;sensor_type;location;lat;lon;timestamp;P1;durP1;ratioP1;P2;durP2;ratioP2
21697;SDS011;11010;49.548;11.926;2022-09-09T00:09:27;4.35;;;1.00;;
21697;SDS011;11010;49.548;11.926;2022-09-09T00:12:00;4.65;;;1.08;;
21697;SDS011;11010;49.548;11.926;2022-09-09T00:20:09;7.35;;;1.10;;
21697;SDS011;11010;49.548;11.926;2022-09-09T00:22:40;4.82;;;1.10;;
21697;SDS011;11010;49.548;11.926;2022-09-09T00:25:11;3.85;;;1.00;;
21697;SDS011;11010;49.548;11.926;2022-09-09T00:27:47;4.75;;;1.10;;
21697;SDS011;11010;49.548;11.926;2022-09-09T00:30:22;5.60;;;1.00;;
21697;SDS011;11010;49.548;11.926;2022-09-09T00:32:54;3.25;;;1.00;;
21697;SDS011;11010;49.548;11.926;2022-09-09T00:35:29;5.55;;;1.30;;
21697;SDS011;11010;49.548;11.926;2022-09-09T00:37:59;6.50;;;1.35;;
21697;SDS011;11010;49.548;11.926;2022-09-09T00:40:32;3.13;;;1.00;;
21697;SDS011;11010;49.548;11.926;2022-09-09T00:48:06;4.25;;;1.25;;
21697;SDS011;11010;49.548;11.926;2022-09-09T00:55:54;5.47;;;1.10;;
21697;SDS011;11010;49.548;11.926;2022-09-09T00:58:26;3.55;;;0.93;;
21697;SDS011;11010;49.548;11.926;2022-09-09T01:00:58;6.03;;;1.10;;
21697;SDS011;11010;49.548;11.926;2022-09-09T01:03:34;3.75;;;1.10;;
21697;SDS011;11010;49.548;11.926;2022-09-09T01:06:22;4.32;;;1.02;;
21697;SDS011;11010;49.548;11.926;2022-09-09T01:09:38;5.47;;;1.10;;
21697;SDS011;11010;49.548;11.926;2022-09-09T01:14:58;5.63;;;1.13;;
21697;SDS011;11010;49.548;11.926;2022-09-09T01:17:35;4.80;;;1.25;;
21697;SDS011;11010;49.548;11.926;2022-09-09T01:20:13;5.10;;;1.17;;
21697;SDS011;11010;49.548;11.926;2022-09-09T01:28:12;4.30;;;1.13;;
21697;SDS011;11010;49.548;11.926;2022-09-09T01:30:43;4.55;;;1.00;;
21697;SDS011;11010;49.548;11.926;2022-09-09T01:33:15;4.40;;;1.00;;
21697;SDS011;11010;49.548;11.926;2022-09-09T01:35:54;5.35;;;1.40;;
21697;SDS011;11010;49.548;11.926;2022-09-09T01:38:27;5.00;;;1.15;;
21697;SDS011;11010;49.548;11.926;2022-09-09T01:40:56;3.72;;;1.00;;
21697;SDS011;11010;49.548;11.926;2022-09-09T01:43:35;4.03;;;0.90;;
21697;SDS011;11010;49.548;11.926;2022-09-09T01:46:02;3.58;;;1.10;;
21697;SDS011;11010;49.548;11.926;2022-09-09T01:48:32;4.32;;;1.20;;
21697;SDS011;11010;49.548;11.926;2022-09-09T01:51:03;5.85;;;1.58;;
21697;SDS011;11010;49.548;11.926;2022-09-09T01:53:31;4.43;;;1.00;;
21697;SDS011;11010;49.548;11.926;2022-09-09T01:56:02;4.95;;;1.00;;
21697;SDS011;11010;49.548;11.926;2022-09-09T01:58:45;3.90;;;1.10;;
21697;SDS011;11010;49.548;11.926;2022-09-09T02:01:22;4.00;;;1.10;;
21697;SDS011;11010;49.548;11.926;2022-09-09T02:03:55;2.78;;;1.00;;
21697;SDS011;11010;49.548;11.926;2022-09-09T02:06:30;5.70;;;1.10;;
21697;SDS011;11010;49.548;11.926;2022-09-09T02:09:12;4.57;;;1.10;;
21697;SDS011;11010;49.548;11.926;2022-09-09T02:11:40;6.72;;;1.20;;
21697;SDS011;11010;49.548;11.926;2022-09-09T02:14:34;4.95;;;1.10;;
21697;SDS011;11010;49.548;11.926;2022-09-09T02:17:06;2.80;;;0.98;;
21697;SDS011;11010;49.548;11.926;2022-09-09T02:19:57;3.88;;;1.05;;
21697;SDS011;11010;49.548;11.926;2022-09-09T02:22:38;4.18;;;1.10;;
21697;SDS011;11010;49.548;11.926;2022-09-09T02:25:07;4.25;;;1.00;;
21697;SDS011;11010;49.548;11.926;2022-09-09T02:27:36;5.85;;;1.20;;
21697;SDS011;11010;49.548;11.926;2022-09-09T02:30:04;7.65;;;1.40;;
21697;SDS011;11010;49.548;11.926;2022-09-09T02:32:37;5.13;;;1.20;;
21697;SDS011;11010;49.548;11.926;2022-09-09T02:35:09;5.43;;;1.20;;
21697;SDS011;11010;49.548;11.926;2022-09-09T02:37:39;5.60;;;1.00;;
21697;SDS011;11010;49.548;11.926;2022-09-09T02:40:09;7.53;;;1.25;;
21697;SDS011;11010;49.548;11.926;2022-09-09T02:42:41;4.68;;;1.00;;
21697;SDS011;11010;49.548;11.926;2022-09-09T02:45:10;6.03;;;1.23;;
21697;SDS011;11010;49.548;11.926;2022-09-09T02:50:28;6.03;;;1.30;;
21697;SDS011;11010;49.548;11.926;2022-09-09T02:58:09;5.80;;;1.40;;
21697;SDS011;11010;49.548;11.926;2022-09-09T03:00:39;6.57;;;1.25;;
21697;SDS011;11010;49.548;11.926;2022-09-09T03:03:07;5.03;;;1.10;;
21697;SDS011;11010;49.548;11.926;2022-09-09T03:05:38;4.40;;;1.15;;
21697;SDS011;11010;49.548;11.926;2022-09-09T03:08:05;4.95;;;1.10;;
21697;SDS011;11010;49.548;11.926;2022-09-09T03:10:33;5.22;;;1.15;;
21697;SDS011;11010;49.548;11.926;2022-09-09T03:13:02;5.72;;;1.13;;
21697;SDS011;11010;49.548;11.926;2022-09-09T03:15:36;3.85;;;1.00;;
21697;SDS011;11010;49.548;11.926;2022-09-09T03:18:06;4.82;;;1.10;;
21697;SDS011;11010;49.548;11.926;2022-09-09T03:20:33;5.38;;;1.20;;
21697;SDS011;11010;49.548;11.926;2022-09-09T03:23:01;5.40;;;1.23;;
21697;SDS011;11010;49.548;11.926;2022-09-09T03:25:29;5.88;;;1.42;;
21697;SDS011;11010;49.548;11.926;2022-09-09T03:27:56;5.03;;;1.30;;
21697;SDS011;11010;49.548;11.926;2022-09-09T03:30:24;7.28;;;1.80;;
21697;SDS011;11010;49.548;11.926;2022-09-09T03:32:54;6.35;;;1.75;;
21697;SDS011;11010;49.548;11.926;2022-09-09T03:35:28;5.22;;;1.35;;
21697;SDS011;11010;49.548;11.926;2022-09-09T03:37:56;5.93;;;1.30;;
21697;SDS011;11010;49.548;11.926;2022-09-09T03:40:24;5.28;;;1.30;;
21697;SDS011;11010;49.548;11.926;2022-09-09T03:42:52;5.60;;;1.50;;
21697;SDS011;11010;49.548;11.926;2022-09-09T03:45:20;4.60;;;1.30;;
21697;SDS011;11010;49.548;11.926;2022-09-09T03:47:48;5.90;;;1.60;;
21697;SDS011;11010;49.548;11.926;2022-09-09T03:50:16;6.80;;;1.50;;
21697;SDS011;11010;49.548;11.926;2022-09-09T03:52:46;6.28;;;1.40;;
21697;SDS011;11010;49.548;11.926;2022-09-09T03:55:19;5.00;;;1.20;;
21697;SDS011;11010;49.548;11.926;2022-09-09T03:57:47;5.80;;;1.33;;
21697;SDS011;11010;49.548;11.926;2022-09-09T04:00:14;5.35;;;1.27;;
21697;SDS011;11010;49.548;11.926;2022-09-09T04:02:42;5.97;;;1.27;;
21697;SDS011;11010;49.548;11.926;2022-09-09T04:05:13;5.18;;;1.23;;
21697;SDS011;11010;49.548;11.926;2022-09-09T04:07:43;6.05;;;1.20;;
21697;SDS011;11010;49.548;11.926;2022-09-09T04:10:11;4.57;;;1.20;;
21697;SDS011;11010;49.548;11.926;2022-09-09T04:12:40;6.50;;;1.60;;
21697;SDS011;11010;49.548;11.926;2022-09-09T04:15:09;7.38;;;2.13;;
21697;SDS011;11010;49.548;11.926;2022-09-09T04:17:38;6.03;;;1.30;;
21697;SDS011;11010;49.548;11.926;2022-09-09T04:20:05;6.10;;;1.48;;
21697;SDS011;11010;49.548;11.926;2022-09-09T04:22:37;8.23;;;1.80;;
21697;SDS011;11010;49.548;11.926;2022-09-09T04:25:06;7.82;;;1.90;;
21697;SDS011;11010;49.548;11.926;2022-09-09T04:27:34;9.18;;;2.15;;
21697;SDS011;11010;49.548;11.926;2022-09-09T04:30:02;6.60;;;1.77;;
21697;SDS011;11010;49.548;11.926;2022-09-09T04:32:32;8.23;;;1.80;;
21697;SDS011;11010;49.548;11.926;2022-09-09T04:35:00;5.45;;;1.50;;
21697;SDS011;11010;49.548;11.926;2022-09-09T04:37:30;7.50;;;1.67;;
21697;SDS011;11010;49.548;11.926;2022-09-09T04:39:59;6.50;;;1.70;;
21697;SDS011;11010;49.548;11.926;2022-09-09T04:42:30;8.65;;;1.88;;
21697;SDS011;11010;49.548;11.926;2022-09-09T04:44:57;6.72;;;1.77;;
21697;SDS011;11010;49.548;11.926;2022-09-09T04:47:25;8.40;;;2.15;;
21697;SDS011;11010;49.548;11.926;2022-09-09T04:49:52;6.65;;;1.92;;
21697;SDS011;11010;49.548;11.926;2022-09-09T04:52:21;6.88;;;1.70;;
21697;SDS011;11010;49.548;11.926;2022-09-09T04:54:48;8.30;;;1.98;;
21697;SDS011;11010;49.548;11.926;2022-09-09T04:57:16;7.60;;;2.30;;
21697;SDS011;11010;49.548;11.926;2022-09-09T04:59:46;8.98;;;2.55;;
21697;SDS011;11010;49.548;11.926;2022-09-09T05:02:14;11.40;;;4.35;;
21697;SDS011;11010;49.548;11.926;2022-09-09T05:04:42;11.95;;;4.60;;
21697;SDS011;11010;49.548;11.926;2022-09-09T05:07:11;8.95;;;3.47;;
21697;SDS011;11010;49.548;11.926;2022-09-09T05:09:39;8.82;;;3.30;;
21697;SDS011;11010;49.548;11.926;2022-09-09T05:12:07;10.07;;;3.47;;
21697;SDS011;11010;49.548;11.926;2022-09-09T05:14:35;11.15;;;4.68;;
21697;SDS011;11010;49.548;11.926;2022-09-09T05:17:04;11.10;;;4.70;;
21697;SDS011;11010;49.548;11.926;2022-09-09T05:19:34;11.25;;;5.00;;
21697;SDS011;11010;49.548;11.926;2022-09-09T05:22:02;10.07;;;4.38;;
21697;SDS011;11010;49.548;11.926;2022-09-09T05:24:38;9.30;;;4.00;;
21697;SDS011;11010;49.548;11.926;2022-09-09T05:27:06;10.00;;;4.13;;
21697;SDS011;11010;49.548;11.926;2022-09-09T05:29:37;11.00;;;5.05;;
21697;SDS011;11010;49.548;11.926;2022-09-09T05:32:06;11.55;;;5.18;;
21697;SDS011;11010;49.548;11.926;2022-09-09T05:34:41;13.18;;;5.40;;
21697;SDS011;11010;49.548;11.926;2022-09-09T05:37:09;13.32;;;6.15;;
21697;SDS011;11010;49.548;11.926;2022-09-09T05:39:37;12.30;;;5.78;;
21697;SDS011;11010;49.548;11.926;2022-09-09T05:42:04;12.65;;;5.68;;
21697;SDS011;11010;49.548;11.926;2022-09-09T05:44:32;10.77;;;4.95;;
21697;SDS011;11010;49.548;11.926;2022-09-09T05:47:00;11.88;;;4.95;;
21697;SDS011;11010;49.548;11.926;2022-09-09T05:49:28;14.55;;;6.15;;
21697;SDS011;11010;49.548;11.926;2022-09-09T05:51:56;13.07;;;5.97;;
21697;SDS011;11010;49.548;11.926;2022-09-09T05:54:23;12.55;;;5.88;;
21697;SDS011;11010;49.548;11.926;2022-09-09T05:56:53;14.50;;;6.85;;
21697;SDS011;11010;49.548;11.926;2022-09-09T05:59:21;15.43;;;6.70;;
21697;SDS011;11010;49.548;11.926;2022-09-09T06:01:52;16.35;;;7.60;;
21697;SDS011;11010;49.548;11.926;2022-09-09T06:04:27;14.77;;;7.15;;
21697;SDS011;11010;49.548;11.926;2022-09-09T06:06:55;15.77;;;7.32;;
21697;SDS011;11010;49.548;11.926;2022-09-09T06:09:22;13.02;;;5.93;;
21697;SDS011;11010;49.548;11.926;2022-09-09T06:11:50;14.15;;;6.57;;
21697;SDS011;11010;49.548;11.926;2022-09-09T06:14:19;17.17;;;7.70;;
21697;SDS011;11010;49.548;11.926;2022-09-09T06:16:50;18.05;;;8.93;;
21697;SDS011;11010;49.548;11.926;2022-09-09T06:19:21;17.27;;;8.65;;
21697;SDS011;11010;49.548;11.926;2022-09-09T06:21:49;16.50;;;8.43;;
21697;SDS011;11010;49.548;11.926;2022-09-09T06:24:17;17.63;;;8.60;;
21697;SDS011;11010;49.548;11.926;2022-09-09T06:26:45;15.77;;;7.70;;
21697;SDS011;11010;49.548;11.926;2022-09-09T06:29:23;16.52;;;8.10;;
21697;SDS011;11010;49.548;11.926;2022-09-09T06:31:52;18.25;;;8.90;;
21697;SDS011;11010;49.548;11.926;2022-09-09T06:34:21;17.33;;;8.45;;
21697;SDS011;11010;49.548;11.926;2022-09-09T06:36:53;16.67;;;8.32;;
21697;SDS011;11010;49.548;11.926;2022-09-09T06:39:27;15.80;;;7.97;;
21697;SDS011;11010;49.548;11.926;2022-09-09T06:41:54;17.85;;;8.93;;
21697;SDS011;11010;49.548;11.926;2022-09-09T06:44:49;16.77;;;8.57;;
21697;SDS011;11010;49.548;11.926;2022-09-09T06:47:23;13.35;;;6.45;;
21697;SDS011;11010;49.548;11.926;2022-09-09T06:49:52;17.27;;;8.55;;
21697;SDS011;11010;49.548;11.926;2022-09-09T06:52:19;17.05;;;8.05;;
21697;SDS011;11010;49.548;11.926;2022-09-09T06:54:48;17.30;;;8.88;;
21697;SDS011;11010;49.548;11.926;2022-09-09T06:57:16;15.50;;;8.23;;
21697;SDS011;11010;49.548;11.926;2022-09-09T07:00:05;14.30;;;7.45;;
21697;SDS011;11010;49.548;11.926;2022-09-09T07:02:34;17.05;;;8.75;;
21697;SDS011;11010;49.548;11.926;2022-09-09T07:05:06;14.70;;;8.00;;
21697;SDS011;11010;49.548;11.926;2022-09-09T07:07:35;19.45;;;9.35;;
21697;SDS011;11010;49.548;11.926;2022-09-09T07:10:04;16.42;;;8.57;;
21697;SDS011;11010;49.548;11.926;2022-09-09T07:12:32;14.85;;;7.82;;
21697;SDS011;11010;49.548;11.926;2022-09-09T07:15:00;16.45;;;7.55;;
21697;SDS011;11010;49.548;11.926;2022-09-09T07:17:27;15.80;;;7.95;;
21697;SDS011;11010;49.548;11.926;2022-09-09T07:19:58;16.00;;;7.63;;
21697;SDS011;11010;49.548;11.926;2022-09-09T07:22:27;15.95;;;8.05;;
21697;SDS011;11010;49.548;11.926;2022-09-09T07:24:55;16.25;;;8.55;;
21697;SDS011;11010;49.548;11.926;2022-09-09T07:27:24;15.43;;;7.80;;
21697;SDS011;11010;49.548;11.926;2022-09-09T07:29:52;17.42;;;8.18;;
21697;SDS011;11010;49.548;11.926;2022-09-09T07:32:20;15.48;;;8.43;;
21697;SDS011;11010;49.548;11.926;2022-09-09T07:34:48;14.98;;;8.32;;
21697;SDS011;11010;49.548;11.926;2022-09-09T07:37:17;13.57;;;7.97;;
21697;SDS011;11010;49.548;11.926;2022-09-09T07:39:46;14.50;;;8.02;;
21697;SDS011;11010;49.548;11.926;2022-09-09T07:42:16;14.60;;;7.97;;
21697;SDS011;11010;49.548;11.926;2022-09-09T07:44:44;13.93;;;7.57;;
21697;SDS011;11010;49.548;11.926;2022-09-09T07:47:14;13.98;;;8.23;;
21697;SDS011;11010;49.548;11.926;2022-09-09T07:49:46;16.45;;;8.65;;
21697;SDS011;11010;49.548;11.926;2022-09-09T07:52:21;15.95;;;8.73;;
21697;SDS011;11010;49.548;11.926;2022-09-09T07:54:53;15.10;;;8.50;;
21697;SDS011;11010;49.548;11.926;2022-09-09T07:57:23;15.88;;;8.63;;
21697;SDS011;11010;49.548;11.926;2022-09-09T07:59:52;15.13;;;8.20;;
21697;SDS011;11010;49.548;11.926;2022-09-09T08:02:20;14.32;;;8.00;;
21697;SDS011;11010;49.548;11.926;2022-09-09T08:04:48;15.82;;;8.00;;
21697;SDS011;11010;49.548;11.926;2022-09-09T08:07:17;13.50;;;8.25;;
21697;SDS011;11010;49.548;11.926;2022-09-09T08:09:50;13.05;;;7.22;;
21697;SDS011;11010;49.548;11.926;2022-09-09T08:12:25;13.35;;;7.35;;
21697;SDS011;11010;49.548;11.926;2022-09-09T08:14:52;12.50;;;6.72;;
21697;SDS011;11010;49.548;11.926;2022-09-09T08:17:24;12.13;;;6.50;;
21697;SDS011;11010;49.548;11.926;2022-09-09T08:19:52;12.45;;;6.53;;
21697;SDS011;11010;49.548;11.926;2022-09-09T08:22:24;11.85;;;6.50;;
21697;SDS011;11010;49.548;11.926;2022-09-09T08:24:53;11.77;;;5.95;;
21697;SDS011;11010;49.548;11.926;2022-09-09T08:27:21;13.00;;;6.57;;
21697;SDS011;11010;49.548;11.926;2022-09-09T08:29:49;12.82;;;6.22;;
21697;SDS011;11010;49.548;11.926;2022-09-09T08:32:18;11.07;;;5.45;;
21697;SDS011;11010;49.548;11.926;2022-09-09T08:34:46;11.50;;;5.50;;
21697;SDS011;11010;49.548;11.926;2022-09-09T08:37:19;11.45;;;5.30;;
21697;SDS011;11010;49.548;11.926;2022-09-09T08:39:47;13.63;;;6.68;;
21697;SDS011;11010;49.548;11.926;2022-09-09T08:42:53;11.85;;;6.40;;
21697;SDS011;11010;49.548;11.926;2022-09-09T08:48:04;14.05;;;7.38;;
21697;SDS011;11010;49.548;11.926;2022-09-09T08:50:36;13.70;;;7.72;;
21697;SDS011;11010;49.548;11.926;2022-09-09T08:53:22;12.88;;;6.95;;
21697;SDS011;11010;49.548;11.926;2022-09-09T08:55:56;13.38;;;7.68;;
21697;SDS011;11010;49.548;11.926;2022-09-09T08:58:47;13.18;;;6.75;;
21697;SDS011;11010;49.548;11.926;2022-09-09T09:01:51;11.45;;;5.97;;
21697;SDS011;11010;49.548;11.926;2022-09-09T09:04:29;10.98;;;6.00;;
21697;SDS011;11010;49.548;11.926;2022-09-09T09:12:00;13.93;;;7.10;;
21697;SDS011;11010;49.548;11.926;2022-09-09T09:14:34;12.60;;;6.95;;
21697;SDS011;11010;49.548;11.926;2022-09-09T09:17:07;12.65;;;7.03;;
21697;SDS011;11010;49.548;11.926;2022-09-09T09:19:38;14.77;;;7.20;;
21697;SDS011;11010;49.548;11.926;2022-09-09T09:22:21;13.63;;;6.75;;
21697;SDS011;11010;49.548;11.926;2022-09-09T09:30:21;10.55;;;5.97;;
21697;SDS011;11010;49.548;11.926;2022-09-09T09:33:22;14.00;;;5.85;;
21697;SDS011;11010;49.548;11.926;2022-09-09T09:35:49;11.52;;;5.50;;
21697;SDS011;11010;49.548;11.926;2022-09-09T09:38:22;10.30;;;5.15;;
21697;SDS011;11010;49.548;11.926;2022-09-09T09:41:10;11.23;;;5.82;;
21697;SDS011;11010;49.548;11.926;2022-09-09T09:43:40;11.85;;;5.63;;
21697;SDS011;11010;49.548;11.926;2022-09-09T09:46:22;10.98;;;5.30;;
21697;SDS011;11010;49.548;11.926;2022-09-09T09:49:00;10.57;;;5.28;;
21697;SDS011;11010;49.548;11.926;2022-09-09T09:51:30;11.10;;;5.97;;
21697;SDS011;11010;49.548;11.926;2022-09-09T09:54:20;11.70;;;5.80;;
21697;SDS011;11010;49.548;11.926;2022-09-09T09:56:53;10.52;;;5.07;;
21697;SDS011;11010;49.548;11.926;2022-09-09T10:02:13;11.23;;;5.70;;
21697;SDS011;11010;49.548;11.926;2022-09-09T10:04:42;9.82;;;5.10;;
21697;SDS011;11010;49.548;11.926;2022-09-09T10:07:13;10.32;;;5.28;;
21697;SDS011;11010;49.548;11.926;2022-09-09T10:09:43;10.18;;;4.63;;
21697;SDS011;11010;49.548;11.926;2022-09-09T10:12:17;9.50;;;3.45;;
21697;SDS011;11010;49.548;11.926;2022-09-09T10:19:54;8.35;;;2.60;;
21697;SDS011;11010;49.548;11.926;2022-09-09T10:22:31;9.57;;;2.33;;
21697;SDS011;11010;49.548;11.926;2022-09-09T10:30:12;6.75;;;2.08;;
21697;SDS011;11010;49.548;11.926;2022-09-09T10:40:32;8.40;;;2.10;;
21697;SDS011;11010;49.548;11.926;2022-09-09T10:56:08;5.47;;;1.40;;
21697;SDS011;11010;49.548;11.926;2022-09-09T10:58:49;6.75;;;1.60;;
21697;SDS011;11010;49.548;11.926;2022-09-09T11:03:47;6.55;;;1.75;;
21697;SDS011;11010;49.548;11.926;2022-09-09T11:06:17;6.32;;;1.50;;
21697;SDS011;11010;49.548;11.926;2022-09-09T11:08:46;5.13;;;1.30;;
21697;SDS011;11010;49.548;11.926;2022-09-09T11:11:25;7.30;;;1.30;;
21697;SDS011;11010;49.548;11.926;2022-09-09T11:14:00;6.53;;;1.40;;
21697;SDS011;11010;49.548;11.926;2022-09-09T11:21:54;5.25;;;1.40;;
21697;SDS011;11010;49.548;11.926;2022-09-09T11:24:35;6.28;;;1.40;;
21697;SDS011;11010;49.548;11.926;2022-09-09T11:27:15;5.43;;;1.33;;
21697;SDS011;11010;49.548;11.926;2022-09-09T11:32:44;7.25;;;1.35;;
21697;SDS011;11010;49.548;11.926;2022-09-09T11:38:21;5.80;;;1.38;;
21697;SDS011;11010;49.548;11.926;2022-09-09T11:40:46;5.32;;;1.30;;
21697;SDS011;11010;49.548;11.926;2022-09-09T11:43:16;6.13;;;1.48;;
21697;SDS011;11010;49.548;11.926;2022-09-09T11:45:54;6.00;;;1.45;;
21697;SDS011;11010;49.548;11.926;2022-09-09T11:48:33;5.47;;;1.00;;
21697;SDS011;11010;49.548;11.926;2022-09-09T11:53:31;4.78;;;1.17;;
21697;SDS011;11010;49.548;11.926;2022-09-09T11:56:03;4.85;;;1.10;;
21697;SDS011;11010;49.548;11.926;2022-09-09T11:58:36;5.43;;;1.20;;
21697;SDS011;11010;49.548;11.926;2022-09-09T12:03:52;6.40;;;1.10;;
21697;SDS011;11010;49.548;11.926;2022-09-09T12:06:29;6.20;;;1.15;;
21697;SDS011;11010;49.548;11.926;2022-09-09T12:09:08;5.57;;;0.95;;
21697;SDS011;11010;49.548;11.926;2022-09-09T12:11:37;4.72;;;1.00;;
21697;SDS011;11010;49.548;11.926;2022-09-09T12:14:18;3.25;;;0.80;;
21697;SDS011;11010;49.548;11.926;2022-09-09T12:16:45;4.93;;;1.17;;
21697;SDS011;11010;49.548;11.926;2022-09-09T12:19:14;3.83;;;1.13;;
21697;SDS011;11010;49.548;11.926;2022-09-09T12:24:13;4.10;;;0.93;;
21697;SDS011;11010;49.548;11.926;2022-09-09T12:26:57;5.80;;;1.20;;
21697;SDS011;11010;49.548;11.926;2022-09-09T12:29:28;3.45;;;1.00;;
21697;SDS011;11010;49.548;11.926;2022-09-09T12:32:22;4.72;;;0.90;;
21697;SDS011;11010;49.548;11.926;2022-09-09T12:34:47;2.80;;;0.95;;
21697;SDS011;11010;49.548;11.926;2022-09-09T12:37:35;3.20;;;0.80;;
21697;SDS011;11010;49.548;11.926;2022-09-09T12:40:06;4.03;;;0.80;;
21697;SDS011;11010;49.548;11.926;2022-09-09T12:42:39;3.35;;;0.95;;
21697;SDS011;11010;49.548;11.926;2022-09-09T12:45:28;3.00;;;0.90;;
21697;SDS011;11010;49.548;11.926;2022-09-09T12:50:23;3.45;;;0.90;;
21697;SDS011;11010;49.548;11.926;2022-09-09T12:56:01;2.85;;;0.70;;
21697;SDS011;11010;49.548;11.926;2022-09-09T12:58:29;3.45;;;0.70;;
21697;SDS011;11010;49.548;11.926;2022-09-09T13:01:02;2.83;;;0.70;;
21697;SDS011;11010;49.548;11.926;2022-09-09T13:03:32;1.88;;;0.70;;
21697;SDS011;11010;49.548;11.926;2022-09-09T13:06:13;4.70;;;0.80;;
21697;SDS011;11010;49.548;11.926;2022-09-09T13:08:41;3.30;;;0.70;;
21697;SDS011;11010;49.548;11.926;2022-09-09T13:11:10;2.38;;;0.70;;
21697;SDS011;11010;49.548;11.926;2022-09-09T13:13:40;2.28;;;0.80;;
21697;SDS011;11010;49.548;11.926;2022-09-09T13:16:22;3.67;;;0.70;;
21697;SDS011;11010;49.548;11.926;2022-09-09T13:18:50;3.15;;;0.73;;
21697;SDS011;11010;49.548;11.926;2022-09-09T13:21:18;3.05;;;0.65;;
21697;SDS011;11010;49.548;11.926;2022-09-09T13:23:49;3.47;;;0.70;;
21697;SDS011;11010;49.548;11.926;2022-09-09T13:26:20;3.22;;;0.80;;
21697;SDS011;11010;49.548;11.926;2022-09-09T13:28:48;3.05;;;0.70;;
21697;SDS011;11010;49.548;11.926;2022-09-09T13:31:32;4.43;;;0.80;;
21697;SDS011;11010;49.548;11.926;2022-09-09T13:34:10;2.58;;;0.80;;
21697;SDS011;11010;49.548;11.926;2022-09-09T13:36:37;2.38;;;0.70;;
21697;SDS011;11010;49.548;11.926;2022-09-09T13:39:15;5.05;;;0.68;;
21697;SDS011;11010;49.548;11.926;2022-09-09T13:41:44;2.63;;;0.63;;
21697;SDS011;11010;49.548;11.926;2022-09-09T13:47:17;5.28;;;0.70;;
21697;SDS011;11010;49.548;11.926;2022-09-09T13:49:49;3.50;;;0.80;;
21697;SDS011;11010;49.548;11.926;2022-09-09T13:52:17;3.45;;;0.73;;
21697;SDS011;11010;49.548;11.926;2022-09-09T13:54:49;2.88;;;0.65;;
21697;SDS011;11010;49.548;11.926;2022-09-09T13:57:23;5.72;;;0.90;;
21697;SDS011;11010;49.548;11.926;2022-09-09T13:59:52;5.75;;;1.00;;
21697;SDS011;11010;49.548;11.926;2022-09-09T14:02:36;4.07;;;0.90;;
21697;SDS011;11010;49.548;11.926;2022-09-09T14:05:05;6.97;;;0.80;;
21697;SDS011;11010;49.548;11.926;2022-09-09T14:07:33;2.38;;;0.73;;
21697;SDS011;11010;49.548;11.926;2022-09-09T14:10:00;5.25;;;0.90;;
21697;SDS011;11010;49.548;11.926;2022-09-09T14:12:28;6.57;;;1.10;;
21697;SDS011;11010;49.548;11.926;2022-09-09T14:14:55;4.45;;;0.77;;
21697;SDS011;11010;49.548;11.926;2022-09-09T14:17:23;6.97;;;1.35;;
21697;SDS011;11010;49.548;11.926;2022-09-09T14:19:51;11.02;;;1.60;;
21697;SDS011;11010;49.548;11.926;2022-09-09T14:22:19;8.57;;;1.40;;
21697;SDS011;11010;49.548;11.926;2022-09-09T14:24:47;8.75;;;1.20;;
21697;SDS011;11010;49.548;11.926;2022-09-09T14:27:14;6.90;;;1.17;;
21697;SDS011;11010;49.548;11.926;2022-09-09T14:29:42;7.07;;;1.15;;
21697;SDS011;11010;49.548;11.926;2022-09-09T14:32:11;7.88;;;1.30;;
21697;SDS011;11010;49.548;11.926;2022-09-09T14:34:38;6.95;;;0.90;;
21697;SDS011;11010;49.548;11.926;2022-09-09T14:37:06;8.57;;;1.40;;
21697;SDS011;11010;49.548;11.926;2022-09-09T14:39:34;5.45;;;0.95;;
21697;SDS011;11010;49.548;11.926;2022-09-09T14:42:02;5.78;;;1.00;;
21697;SDS011;11010;49.548;11.926;2022-09-09T14:44:29;4.70;;;0.90;;
21697;SDS011;11010;49.548;11.926;2022-09-09T14:46:57;5.90;;;1.30;;
21697;SDS011;11010;49.548;11.926;2022-09-09T14:49:26;7.75;;;1.20;;
21697;SDS011;11010;49.548;11.926;2022-09-09T14:51:53;5.18;;;0.93;;
21697;SDS011;11010;49.548;11.926;2022-09-09T14:54:21;4.55;;;0.93;;
21697;SDS011;11010;49.548;11.926;2022-09-09T14:56:49;5.97;;;1.10;;
21697;SDS011;11010;49.548;11.926;2022-09-09T14:59:16;5.15;;;1.00;;
21697;SDS011;11010;49.548;11.926;2022-09-09T15:01:44;6.13;;;1.10;;
21697;SDS011;11010;49.548;11.926;2022-09-09T15:04:12;4.63;;;0.90;;
21697;SDS011;11010;49.548;11.926;2022-09-09T15:06:43;6.32;;;1.08;;
21697;SDS011;11010;49.548;11.926;2022-09-09T15:09:15;4.82;;;0.80;;
21697;SDS011;11010;49.548;11.926;2022-09-09T15:11:42;6.50;;;1.10;;
21697;SDS011;11010;49.548;11.926;2022-09-09T15:14:10;5.88;;;1.00;;
21697;SDS011;11010;49.548;11.926;2022-09-09T15:16:38;5.43;;;0.85;;
21697;SDS011;11010;49.548;11.926;2022-09-09T15:19:06;9.30;;;1.10;;
21697;SDS011;11010;49.548;11.926;2022-09-09T15:21:35;7.75;;;1.10;;
21697;SDS011;11010;49.548;11.926;2022-09-09T15:24:04;5.00;;;1.20;;
21697;SDS011;11010;49.548;11.926;2022-09-09T15:26:33;5.70;;;1.20;;
21697;SDS011;11010;49.548;11.926;2022-09-09T15:29:05;8.25;;;1.23;;
21697;SDS011;11010;49.548;11.926;2022-09-09T15:31:35;6.90;;;1.30;;
21697;SDS011;11010;49.548;11.926;2022-09-09T15:34:03;9.35;;;1.38;;
21697;SDS011;11010;49.548;11.926;2022-09-09T15:36:38;9.90;;;1.42;;
21697;SDS011;11010;49.548;11.926;2022-09-09T15:39:07;4.05;;;1.23;;
21697;SDS011;11010;49.548;11.926;2022-09-09T15:41:36;7.32;;;1.20;;
21697;SDS011;11010;49.548;11.926;2022-09-09T15:44:03;5.47;;;1.00;;
21697;SDS011;11010;49.548;11.926;2022-09-09T15:49:03;6.60;;;1.10;;
21697;SDS011;11010;49.548;11.926;2022-09-09T15:51:31;7.30;;;1.25;;
21697;SDS011;11010;49.548;11.926;2022-09-09T15:54:10;9.40;;;1.50;;
21697;SDS011;11010;49.548;11.926;2022-09-09T15:56:38;4.70;;;1.00;;
21697;SDS011;11010;49.548;11.926;2022-09-09T15:59:06;6.43;;;1.30;;
21697;SDS011;11010;49.548;11.926;2022-09-09T16:01:34;5.30;;;1.15;;
21697;SDS011;11010;49.548;11.926;2022-09-09T16:04:02;4.93;;;1.10;;
21697;SDS011;11010;49.548;11.926;2022-09-09T16:06:30;6.75;;;1.40;;
21697;SDS011;11010;49.548;11.926;2022-09-09T16:08:58;5.88;;;1.30;;
21697;SDS011;11010;49.548;11.926;2022-09-09T16:11:29;6.43;;;1.20;;
21697;SDS011;11010;49.548;11.926;2022-09-09T16:13:58;6.75;;;1.10;;
21697;SDS011;11010;49.548;11.926;2022-09-09T16:16:28;7.82;;;1.35;;
21697;SDS011;11010;49.548;11.926;2022-09-09T16:18:57;8.18;;;1.38;;
21697;SDS011;11010;49.548;11.926;2022-09-09T16:21:26;7.60;;;1.35;;
21697;SDS011;11010;49.548;11.926;2022-09-09T16:23:58;6.85;;;1.13;;
21697;SDS011;11010;49.548;11.926;2022-09-09T16:26:26;4.95;;;1.00;;
21697;SDS011;11010;49.548;11.926;2022-09-09T16:28:54;6.60;;;1.08;;
21697;SDS011;11010;49.548;11.926;2022-09-09T16:31:22;5.53;;;1.17;;
21697;SDS011;11010;49.548;11.926;2022-09-09T16:33:50;5.07;;;1.13;;
21697;SDS011;11010;49.548;11.926;2022-09-09T16:36:22;4.13;;;1.33;;
21697;SDS011;11010;49.548;11.926;2022-09-09T16:38:56;6.85;;;1.38;;
21697;SDS011;11010;49.548;11.926;2022-09-09T16:41:25;5.60;;;0.98;;
21697;SDS011;11010;49.548;11.926;2022-09-09T16:43:54;4.07;;;1.02;;
21697;SDS011;11010;49.548;11.926;2022-09-09T16:46:22;5.70;;;1.00;;
21697;SDS011;11010;49.548;11.926;2022-09-09T16:48:51;7.07;;;1.15;;
21697;SDS011;11010;49.548;11.926;2022-09-09T16:53:46;7.45;;;1.40;;
21697;SDS011;11010;49.548;11.926;2022-09-09T16:56:17;7.28;;;1.30;;
21697;SDS011;11010;49.548;11.926;2022-09-09T16:58:52;6.00;;;1.23;;